createdAt,value
2022-11-22T00:00:21.284Z,37.90
2022-11-22T00:03:43.247Z,48.40
2022-11-22T00:10:08.118Z,35.80
2022-11-22T00:13:09.940Z,34.10
2022-11-22T00:16:11.545Z,30.80
2022-11-22T00:19:13.303Z,30.30
2022-11-22T00:22:15.633Z,29.20
2022-11-22T00:25:17.355Z,33.20
2022-11-22T00:28:22.217Z,42.30
2022-11-22T00:34:26.018Z,33.40
2022-11-22T00:37:27.730Z,32.20
2022-11-22T00:43:31.604Z,30.70
2022-11-22T00:46:33.312Z,32.30
2022-11-22T00:52:36.579Z,29.10
2022-11-22T00:55:38.332Z,28.10
2022-11-22T01:01:41.794Z,26.90
2022-11-22T01:04:43.673Z,30.90
2022-11-22T01:07:45.541Z,29.30
2022-11-22T01:13:48.882Z,28.10
2022-11-22T01:16:50.599Z,31.00
2022-11-22T01:19:52.596Z,32.80
2022-11-22T01:22:54.165Z,34.70
2022-11-22T01:25:56.030Z,34.70
2022-11-22T01:31:59.462Z,34.20
2022-11-22T01:38:03.173Z,41.20
2022-11-22T01:41:04.947Z,46.60
2022-11-22T01:47:24.895Z,48.90
2022-11-22T01:50:28.200Z,46.40
2022-11-22T01:53:34.492Z,47.30
2022-11-22T01:56:36.804Z,41.40
2022-11-22T01:59:42.471Z,41.80
2022-11-22T02:02:51.813Z,45.40
2022-11-22T02:05:53.919Z,43.80
2022-11-22T02:09:02.024Z,49.40
2022-11-22T02:12:05.548Z,52.70
2022-11-22T02:15:08.200Z,48.70
2022-11-22T02:18:09.942Z,41.10
2022-11-22T02:21:12.028Z,41.00
2022-11-22T02:24:20.176Z,67.70
2022-11-22T02:27:23.129Z,67.80
2022-11-22T02:30:25.100Z,40.60
2022-11-22T02:33:26.998Z,39.40
2022-11-22T02:36:28.872Z,39.50
2022-11-22T02:39:31.892Z,41.30
2022-11-22T02:42:34.024Z,40.50
2022-11-22T02:48:42.058Z,43.70
2022-11-22T02:51:43.909Z,37.50
2022-11-22T02:57:47.994Z,34.00
2022-11-22T03:00:49.655Z,34.70
2022-11-22T03:03:51.312Z,35.70
2022-11-22T03:06:57.769Z,34.10
2022-11-22T03:09:59.813Z,34.30
2022-11-22T03:13:01.582Z,33.60
2022-11-22T03:16:03.297Z,34.10
2022-11-22T03:19:04.937Z,33.10
2022-11-22T03:22:06.756Z,34.00
2022-11-22T03:28:10.150Z,33.20
2022-11-22T03:31:12.124Z,33.80
2022-11-22T03:34:14.259Z,36.00
2022-11-22T03:37:16.060Z,34.50
2022-11-22T03:40:17.703Z,35.10
2022-11-22T03:46:21.171Z,31.30
2022-11-22T03:52:24.768Z,33.40
2022-11-22T03:55:26.502Z,34.10
2022-11-22T03:58:28.478Z,34.50
2022-11-22T04:01:30.265Z,32.50
2022-11-22T04:04:31.915Z,34.60
2022-11-22T04:07:33.815Z,37.50
2022-11-22T04:13:55.973Z,41.30
2022-11-22T04:16:57.720Z,44.70
2022-11-22T04:20:18.388Z,49.50
2022-11-22T04:23:22.223Z,50.40
2022-11-22T04:26:23.780Z,50.40
2022-11-22T04:29:25.636Z,52.10
2022-11-22T04:32:45.674Z,51.50
2022-11-22T04:35:51.219Z,55.40
2022-11-22T04:38:52.919Z,56.70
2022-11-22T04:42:14.697Z,56.50
2022-11-22T04:45:16.765Z,55.40
2022-11-22T04:48:18.655Z,56.80
2022-11-22T04:51:39.297Z,58.00
2022-11-22T04:54:40.858Z,59.40
2022-11-22T04:57:42.534Z,57.90
2022-11-22T05:00:44.474Z,59.20
2022-11-22T05:03:46.326Z,53.00
2022-11-22T05:06:47.986Z,53.40
2022-11-22T05:09:49.825Z,52.10
2022-11-22T05:12:51.566Z,47.70
2022-11-22T05:15:53.382Z,52.60
2022-11-22T05:22:02.664Z,56.70
2022-11-22T05:25:04.601Z,53.90
2022-11-22T05:28:06.473Z,55.20
2022-11-22T05:31:09.925Z,56.00
2022-11-22T05:34:11.592Z,55.40
2022-11-22T05:37:13.398Z,50.00
2022-11-22T05:40:15.343Z,48.70
2022-11-22T05:43:17.107Z,44.10
2022-11-22T05:46:24.734Z,45.20
2022-11-22T05:49:27.306Z,46.70
2022-11-22T05:52:29.206Z,44.40
2022-11-22T05:58:32.794Z,41.00
2022-11-22T06:01:34.574Z,41.30
2022-11-22T06:04:39.388Z,40.20
2022-11-22T06:07:41.040Z,43.60
2022-11-22T06:10:42.757Z,39.50
2022-11-22T06:13:45.725Z,41.70
2022-11-22T06:16:47.332Z,90.00
2022-11-22T06:19:48.985Z,54.80
2022-11-22T06:22:50.691Z,47.50
2022-11-22T06:25:59.344Z,63.50
2022-11-22T06:29:01.015Z,61.40
2022-11-22T06:32:04.009Z,60.10
2022-11-22T06:35:06.368Z,64.20
2022-11-22T06:38:08.277Z,66.70
2022-11-22T06:41:12.194Z,68.10
2022-11-22T06:44:13.952Z,74.70
2022-11-22T06:47:17.592Z,79.90
2022-11-22T06:50:21.891Z,87.30
2022-11-22T06:53:45.775Z,79.20
2022-11-22T06:56:45.761Z,71.90
2022-11-22T07:02:49.032Z,60.10
2022-11-22T07:05:51.631Z,62.10
2022-11-22T07:08:53.540Z,52.10
2022-11-22T07:11:55.355Z,48.50
2022-11-22T07:17:58.635Z,49.40
2022-11-22T07:21:14.701Z,50.80
2022-11-22T07:24:16.647Z,44.70
2022-11-22T07:27:18.285Z,41.60
2022-11-22T07:30:20.253Z,41.20
2022-11-22T07:33:22.105Z,38.00
2022-11-22T07:36:24.324Z,37.90
2022-11-22T07:39:25.886Z,38.30
2022-11-22T07:42:27.571Z,38.20
2022-11-22T07:45:29.205Z,36.20
2022-11-22T07:48:30.807Z,35.50
2022-11-22T07:51:32.566Z,34.30
2022-11-22T07:57:36.040Z,30.70
2022-11-22T08:00:37.843Z,30.80
2022-11-22T08:09:43.469Z,42.80
2022-11-22T08:15:49.742Z,34.10
2022-11-22T08:18:51.997Z,33.20
2022-11-22T08:21:58.468Z,29.40
2022-11-22T08:25:00.627Z,27.20
2022-11-22T08:28:02.276Z,26.20
2022-11-22T08:31:08.553Z,26.80
2022-11-22T08:34:10.424Z,27.30
2022-11-22T08:37:12.292Z,25.60
2022-11-22T08:40:14.053Z,24.50
2022-11-22T08:43:15.714Z,22.00
2022-11-22T08:46:18.185Z,19.70
2022-11-22T08:49:19.966Z,20.40
2022-11-22T08:52:21.728Z,18.60
2022-11-22T08:55:23.841Z,19.00
2022-11-22T08:58:25.674Z,18.90
2022-11-22T09:01:27.401Z,17.90
2022-11-22T09:04:29.345Z,17.80
2022-11-22T09:10:52.767Z,18.70
2022-11-22T09:13:55.676Z,17.30
2022-11-22T09:16:57.398Z,18.10
2022-11-22T09:19:59.212Z,17.30
2022-11-22T09:23:02.357Z,16.30
2022-11-22T09:26:09.879Z,16.10
2022-11-22T09:29:11.683Z,16.90
2022-11-22T09:32:13.464Z,16.90
2022-11-22T09:35:17.361Z,18.60
2022-11-22T09:38:19.465Z,20.50
2022-11-22T09:41:43.151Z,17.80
2022-11-22T09:45:19.115Z,14.70
2022-11-22T09:48:33.302Z,15.90
2022-11-22T09:51:41.897Z,15.90
2022-11-22T09:54:57.164Z,14.40
2022-11-22T09:58:25.306Z,15.40
2022-11-22T10:01:31.991Z,16.50
2022-11-22T10:04:37.916Z,16.00
2022-11-22T10:07:48.220Z,16.90
2022-11-22T10:10:52.710Z,16.40
2022-11-22T10:13:59.396Z,17.60
2022-11-22T10:17:07.081Z,17.90
2022-11-22T10:20:26.535Z,16.50
2022-11-22T10:23:28.307Z,16.60
2022-11-22T10:26:34.324Z,16.30
2022-11-22T10:29:40.542Z,16.90
2022-11-22T10:33:09.165Z,16.40
2022-11-22T10:36:26.126Z,16.70
2022-11-22T10:39:46.640Z,17.10
2022-11-22T10:43:07.183Z,17.00
2022-11-22T10:46:25.889Z,15.10
2022-11-22T10:49:46.332Z,15.90
2022-11-22T10:52:54.870Z,15.70
2022-11-22T10:56:05.547Z,15.50
2022-11-22T10:59:41.490Z,14.50
2022-11-22T11:03:18.792Z,16.00
2022-11-22T11:06:49.441Z,15.50
2022-11-22T11:13:28.939Z,16.20
2022-11-22T11:16:34.063Z,14.80
2022-11-22T11:19:39.297Z,15.50
2022-11-22T11:26:19.501Z,14.80
2022-11-22T11:29:24.305Z,14.50
2022-11-22T11:32:25.972Z,14.00
2022-11-22T11:35:29.273Z,15.20
2022-11-22T11:38:32.673Z,16.20
2022-11-22T11:41:40.275Z,17.50
2022-11-22T11:44:45.098Z,17.60
2022-11-22T11:47:46.774Z,17.30
2022-11-22T11:50:48.452Z,15.70
2022-11-22T11:54:05.813Z,14.40
2022-11-22T11:57:23.328Z,15.90
2022-11-22T12:00:27.176Z,16.40
2022-11-22T12:03:28.831Z,16.40
2022-11-22T12:06:32.120Z,15.00
2022-11-22T12:09:36.960Z,15.90
2022-11-22T12:12:47.923Z,15.70
2022-11-22T12:16:14.988Z,15.00
2022-11-22T12:19:29.358Z,15.90
2022-11-22T12:22:56.003Z,15.70
2022-11-22T12:25:58.069Z,14.00
2022-11-22T12:29:00.477Z,15.40
2022-11-22T12:32:11.932Z,14.20
2022-11-22T12:35:17.137Z,13.70
2022-11-22T12:38:21.813Z,16.10
2022-11-22T12:41:27.301Z,14.80
2022-11-22T12:44:33.719Z,14.90
2022-11-22T12:47:40.885Z,17.10
2022-11-22T12:50:47.396Z,13.90
2022-11-22T12:53:49.684Z,24.60
2022-11-22T12:57:06.567Z,16.60
2022-11-22T13:00:19.481Z,15.00
2022-11-22T13:03:32.176Z,14.00
2022-11-22T13:06:48.256Z,14.10
2022-11-22T13:09:57.339Z,13.20
2022-11-22T13:13:00.697Z,13.00
2022-11-22T13:16:07.110Z,13.90
2022-11-22T13:19:14.467Z,13.20
2022-11-22T13:22:50.369Z,14.70
2022-11-22T13:26:10.316Z,14.30
2022-11-22T13:29:23.999Z,15.80
2022-11-22T13:32:30.716Z,18.10
2022-11-22T13:35:33.649Z,17.70
2022-11-22T13:38:35.308Z,16.80
2022-11-22T13:41:48.762Z,16.50
2022-11-22T13:44:56.313Z,17.70
2022-11-22T13:47:58.037Z,16.00
2022-11-22T13:57:42.743Z,27.90
2022-11-22T14:00:44.684Z,20.10
2022-11-22T14:03:46.452Z,21.00
2022-11-22T14:09:50.758Z,17.80
2022-11-22T14:16:08.072Z,19.80
2022-11-22T14:19:18.958Z,21.00
2022-11-22T14:22:44.996Z,16.80
2022-11-22T14:25:49.422Z,17.00
2022-11-22T14:29:28.634Z,16.60
2022-11-22T14:32:57.608Z,16.60
2022-11-22T14:36:09.659Z,13.70
2022-11-22T14:39:47.588Z,142.60
2022-11-22T14:42:52.084Z,34.80
2022-11-22T14:45:58.543Z,17.30
2022-11-22T14:49:14.093Z,14.20
2022-11-22T14:52:23.285Z,14.30
2022-11-22T14:55:32.430Z,17.70
2022-11-22T14:58:38.938Z,20.20
2022-11-22T15:01:52.462Z,18.80
2022-11-22T15:09:14.557Z,19.90
2022-11-22T15:09:16.476Z,17.50
2022-11-22T15:12:41.257Z,20.20
2022-11-22T15:58:04.431Z,17.40
2022-11-22T16:01:18.809Z,19.10
2022-11-22T16:04:33.923Z,18.80
2022-11-22T16:07:37.900Z,36.40
2022-11-22T16:10:42.837Z,31.70
2022-11-22T16:13:44.634Z,24.10
2022-11-22T16:19:47.886Z,21.50
2022-11-22T16:26:30.811Z,19.70
2022-11-22T16:32:35.929Z,20.40
2022-11-22T16:41:41.775Z,19.70
2022-11-22T16:47:54.201Z,39.30
2022-11-22T16:51:24.282Z,22.50
2022-11-22T16:54:28.586Z,23.50
2022-11-22T16:57:30.504Z,25.70
2022-11-22T17:03:36.520Z,35.10
2022-11-22T17:06:38.591Z,31.70
2022-11-22T17:09:40.621Z,31.80
2022-11-22T17:12:43.404Z,32.10
2022-11-22T17:15:45.988Z,37.10
2022-11-22T17:18:48.421Z,37.30
2022-11-22T17:21:50.270Z,37.00
2022-11-22T17:27:54.307Z,35.60
2022-11-22T17:30:59.786Z,43.30
2022-11-22T17:34:01.721Z,44.50
2022-11-22T17:37:03.523Z,33.40
2022-11-22T17:43:07.123Z,22.50
2022-11-22T17:46:08.939Z,39.70
2022-11-22T17:52:18.227Z,25.30
2022-11-22T17:58:21.519Z,24.50
2022-11-22T18:01:23.730Z,27.00
2022-11-22T18:04:25.414Z,31.10
2022-11-22T18:07:29.669Z,31.80
2022-11-22T18:10:31.452Z,35.80
2022-11-22T18:16:36.167Z,37.50
2022-11-22T18:19:41.039Z,33.80
2022-11-22T18:25:44.761Z,30.20
2022-11-22T18:29:02.554Z,33.00
2022-11-22T18:32:08.648Z,47.90
2022-11-22T18:35:11.924Z,49.00
2022-11-22T18:38:13.674Z,41.00
2022-11-22T18:44:18.673Z,34.20
2022-11-22T18:47:20.682Z,37.70
2022-11-22T18:50:22.260Z,34.90
2022-11-22T18:53:23.924Z,32.70
2022-11-22T18:56:26.334Z,31.30
2022-11-22T18:59:28.148Z,29.50
2022-11-22T19:02:30.140Z,32.70
2022-11-22T19:05:31.949Z,38.60
2022-11-22T19:08:37.623Z,42.60
2022-11-22T19:11:39.519Z,58.10
2022-11-22T19:14:41.496Z,48.00
2022-11-22T19:17:43.214Z,36.30
2022-11-22T19:23:57.891Z,30.00
2022-11-22T19:27:00.036Z,33.20
2022-11-22T19:30:02.524Z,32.80
2022-11-22T19:33:04.286Z,30.80
2022-11-22T19:39:20.030Z,35.90
2022-11-22T19:42:21.677Z,37.90
2022-11-22T19:45:23.305Z,36.60
2022-11-22T19:48:24.991Z,45.20
2022-11-22T19:51:28.671Z,43.80
2022-11-22T19:54:31.178Z,47.30
2022-11-22T19:57:32.928Z,42.20
2022-11-22T20:03:38.529Z,32.30
2022-11-22T20:06:40.448Z,30.10
2022-11-22T20:12:44.191Z,55.30
2022-11-22T20:15:46.074Z,52.00
2022-11-22T20:18:48.661Z,42.40
2022-11-22T20:21:53.009Z,35.20
2022-11-22T20:24:54.653Z,36.50
2022-11-22T20:27:56.333Z,33.90
2022-11-22T20:31:05.445Z,35.90
2022-11-22T20:34:09.756Z,37.10
2022-11-22T20:37:11.408Z,37.30
2022-11-22T20:40:13.058Z,37.50
2022-11-22T20:43:14.654Z,35.20
2022-11-22T20:46:24.999Z,39.00
2022-11-22T20:49:30.846Z,37.90
2022-11-22T20:52:32.529Z,36.40
2022-11-22T20:55:34.216Z,34.00
2022-11-22T20:58:36.383Z,33.10
2022-11-22T21:01:38.516Z,35.70
2022-11-22T21:04:40.338Z,33.90
2022-11-22T21:10:43.763Z,32.40
2022-11-22T21:16:47.370Z,34.90
2022-11-22T21:22:54.366Z,40.80
2022-11-22T21:25:56.291Z,45.30
2022-11-22T21:28:59.541Z,45.00
2022-11-22T21:32:01.255Z,35.80
2022-11-22T21:35:02.916Z,35.00
2022-11-22T21:38:04.566Z,35.90
2022-11-22T21:41:38.217Z,34.20
2022-11-22T21:44:34.106Z,34.50
2022-11-22T21:47:35.855Z,40.20
2022-11-22T21:53:39.422Z,37.80
2022-11-22T21:56:41.095Z,39.60
2022-11-22T21:59:42.799Z,41.60
2022-11-22T22:02:46.516Z,43.50
2022-11-22T22:05:49.548Z,42.70
2022-11-22T22:08:51.278Z,42.40
2022-11-22T22:14:54.932Z,37.70
2022-11-22T22:17:56.775Z,36.20
2022-11-22T22:24:04.103Z,36.60
2022-11-22T22:27:06.025Z,38.00
2022-11-22T22:33:10.875Z,36.70
2022-11-22T22:36:13.211Z,37.60
2022-11-22T22:39:14.923Z,35.20
2022-11-22T22:45:18.162Z,37.80
2022-11-22T22:48:20.578Z,37.20
2022-11-22T22:51:33.197Z,38.50
2022-11-22T22:54:36.000Z,37.70
2022-11-22T22:57:37.689Z,36.20
2022-11-22T23:00:39.369Z,38.50
2022-11-22T23:03:41.147Z,36.50
2022-11-22T23:06:43.973Z,39.40
2022-11-22T23:09:45.892Z,38.60
2022-11-22T23:12:47.670Z,39.60
2022-11-22T23:15:58.290Z,40.40
2022-11-22T23:19:00.447Z,40.70
2022-11-22T23:22:03.271Z,40.60
2022-11-22T23:25:06.494Z,39.10
2022-11-22T23:28:08.471Z,41.90
2022-11-22T23:31:13.615Z,43.90
2022-11-22T23:34:15.358Z,42.20
2022-11-22T23:37:17.104Z,39.80
2022-11-22T23:43:20.542Z,39.40
2022-11-22T23:46:25.139Z,42.40
2022-11-22T23:49:26.926Z,38.70
2022-11-22T23:55:30.232Z,36.90
2022-11-22T23:58:32.116Z,38.60
